Time;durP1;ratioP1;P1;durP2;ratioP2;P2;SDS_P1;SDS_P2;PMS_P1;PMS_P2;Temp;Humidity;BMP_temperature;BMP_pressure;BME280_temperature;BME280_humidity;BME280_pressure;Samples;Min_cycle;Max_cycle;Signal;HPM_P1;HPM_P2
2022/05/07 00:01:03;;;;;;;;;;;13.10;74.30;;;;;;5006347;28;19922;-79
2022/05/07 00:03:29;;;;;;;;;;;13.20;74.20;;;;;;5021377;28;19917;-80
2022/05/07 00:05:54;;;;;;;;;;;13.20;74.50;;;;;;5030185;28;20001;-79
2022/05/07 00:08:20;;;;;;;;;;;13.30;74.50;;;;;;5029180;28;20425;-79
2022/05/07 00:10:45;;;;;;;;;;;13.40;74.00;;;;;;5027165;28;19917;-79
2022/05/07 00:13:11;;;;;;;;;;;13.40;73.50;;;;;;5009899;28;20044;-78
2022/05/07 00:15:36;;;;;;;;;;;13.30;73.60;;;;;;5026942;28;19913;-79
2022/05/07 00:18:03;;;;;;;;;;;13.30;73.60;;;;;;5028535;28;20012;-79
2022/05/07 00:20:29;;;;;;;;;;;13.30;73.40;;;;;;5025987;28;19984;-79
2022/05/07 00:22:55;;;;;;;;;;;13.20;73.40;;;;;;5011524;28;19993;-79
2022/05/07 00:25:20;;;;;;;;;;;13.20;73.60;;;;;;5009171;28;20089;-80
2022/05/07 00:27:46;;;;;;;;;;;13.20;74.00;;;;;;5008785;28;19921;-80
2022/05/07 00:30:11;;;;;;;;;;;13.20;73.80;;;;;;5027792;28;19953;-79
2022/05/07 00:32:37;;;;;;;;;;;13.20;73.90;;;;;;5030851;28;19932;-79
2022/05/07 00:35:02;;;;;;;;;;;13.30;73.60;;;;;;5012138;28;19982;-80
2022/05/07 00:37:28;;;;;;;;;;;13.30;73.30;;;;;;5010996;28;19913;-81
2022/05/07 00:39:54;;;;;;;;;;;13.20;73.50;;;;;;5039038;28;19967;-80
2022/05/07 00:42:22;;;;;;;;;;;13.00;74.00;;;;;;5022135;28;19975;-80
2022/05/07 00:44:48;;;;;;;;;;;13.00;74.30;;;;;;5018098;28;19920;-80
2022/05/07 00:47:31;;;;;;;;;;;13.00;74.40;;;;;;5015763;28;19917;-79
2022/05/07 00:51:33;;;;;;;;;;;12.90;74.80;;;;;;5030051;28;20427;-80
2022/05/07 00:52:44;;;;;;;;;;;12.80;75.00;;;;;;5029365;28;19975;-80
2022/05/07 00:55:13;;;;;;;;;;;12.80;75.50;;;;;;5030910;28;20238;-79
2022/05/07 00:57:39;;;;;;;;;;;12.80;75.10;;;;;;5012146;28;19951;-80
2022/05/07 01:00:05;;;;;;;;;;;12.70;75.50;;;;;;5017295;28;20077;-79
2022/05/07 01:02:30;;;;;;;;;;;12.70;75.60;;;;;;5024634;28;20021;-80
2022/05/07 01:04:56;;;;;;;;;;;12.80;75.50;;;;;;5034922;28;20027;-80
2022/05/07 01:07:22;;;;;;;;;;;12.80;75.30;;;;;;5030412;28;19916;-81
2022/05/07 01:09:47;;;;;;;;;;;12.80;74.90;;;;;;5029697;28;19952;-80
2022/05/07 01:12:13;;;;;;;;;;;12.80;75.10;;;;;;5028280;28;20370;-80
2022/05/07 01:14:39;;;;;;;;;;;12.70;75.30;;;;;;5032565;28;19925;-80
2022/05/07 01:17:08;;;;;;;;;;;12.70;75.20;;;;;;5028631;28;20556;-80
2022/05/07 01:19:33;;;;;;;;;;;12.70;75.00;;;;;;5024811;28;19917;-79
2022/05/07 01:21:59;;;;;;;;;;;12.60;75.20;;;;;;5014991;28;19913;-79
2022/05/07 01:24:24;;;;;;;;;;;12.50;75.30;;;;;;5027211;28;20250;-80
2022/05/07 01:26:50;;;;;;;;;;;12.50;75.70;;;;;;5016694;28;19913;-79
2022/05/07 01:29:15;;;;;;;;;;;12.50;75.80;;;;;;5029850;28;20035;-80
2022/05/07 01:31:41;;;;;;;;;;;12.50;75.60;;;;;;5034543;28;19943;-80
2022/05/07 01:34:06;;;;;;;;;;;12.40;75.90;;;;;;5037504;28;19967;-80
2022/05/07 01:36:32;;;;;;;;;;;12.30;76.20;;;;;;5014603;28;20098;-79
2022/05/07 01:38:57;;;;;;;;;;;12.20;76.20;;;;;;5004467;28;19917;-79
2022/05/07 01:41:23;;;;;;;;;;;12.10;76.60;;;;;;5032247;28;19920;-79
2022/05/07 01:43:48;;;;;;;;;;;12.10;76.90;;;;;;5014214;28;19944;-79
2022/05/07 01:48:58;;;;;;;;;;;12.00;78.00;;;;;;5030230;28;20411;-79
2022/05/07 01:51:23;;;;;;;;;;;12.00;78.50;;;;;;5028973;28;19917;-80
2022/05/07 01:53:48;;;;;;;;;;;12.10;78.60;;;;;;5032041;28;20038;-80
2022/05/07 01:56:14;;;;;;;;;;;12.10;78.60;;;;;;5015347;28;19993;-80
2022/05/07 01:58:39;;;;;;;;;;;12.20;77.90;;;;;;5028995;28;19917;-80
2022/05/07 02:01:05;;;;;;;;;;;12.20;77.40;;;;;;5032252;28;19909;-78
2022/05/07 02:03:30;;;;;;;;;;;12.20;77.40;;;;;;5012852;28;19917;-79
2022/05/07 02:05:56;;;;;;;;;;;12.20;77.00;;;;;;5011310;28;19921;-79
2022/05/07 02:08:21;;;;;;;;;;;12.20;77.30;;;;;;5010801;28;19913;-80
2022/05/07 02:10:47;;;;;;;;;;;12.10;76.90;;;;;;5027114;28;19913;-79
2022/05/07 02:13:12;;;;;;;;;;;12.10;77.10;;;;;;5027944;28;19913;-79
2022/05/07 02:15:38;;;;;;;;;;;12.10;77.50;;;;;;5027817;28;19939;-79
2022/05/07 02:18:03;;;;;;;;;;;12.00;77.70;;;;;;5029443;28;19913;-79
2022/05/07 02:20:29;;;;;;;;;;;12.10;77.90;;;;;;5012812;28;19960;-79
2022/05/07 02:22:57;;;;;;;;;;;12.10;77.50;;;;;;5029124;28;19925;-79
2022/05/07 02:25:23;;;;;;;;;;;12.10;77.80;;;;;;5029432;28;20349;-79
2022/05/07 02:27:49;;;;;;;;;;;12.10;78.10;;;;;;5009802;28;20366;-79
2022/05/07 02:30:15;;;;;;;;;;;12.10;77.90;;;;;;5022852;28;19978;-79
2022/05/07 02:32:40;;;;;;;;;;;12.10;78.00;;;;;;5014172;28;19917;-79
2022/05/07 02:35:06;;;;;;;;;;;12.10;78.10;;;;;;5030836;28;19979;-79
2022/05/07 02:37:32;;;;;;;;;;;12.10;77.90;;;;;;5030460;28;20011;-79
2022/05/07 02:39:57;;;;;;;;;;;12.20;77.30;;;;;;5023047;28;19919;-80
2022/05/07 02:42:39;;;;;;;;;;;12.10;77.20;;;;;;5030702;28;19936;-80
2022/05/07 02:45:06;;;;;;;;;;;12.10;77.20;;;;;;5011083;28;19920;-79
2022/05/07 02:47:32;;;;;;;;;;;12.10;77.10;;;;;;5032507;28;19913;-79
2022/05/07 02:49:57;;;;;;;;;;;12.10;77.20;;;;;;5034104;28;19928;-80
2022/05/07 02:52:23;;;;;;;;;;;12.10;77.40;;;;;;5031984;28;19909;-80
2022/05/07 02:54:48;;;;;;;;;;;12.10;77.00;;;;;;5029849;28;20032;-78
2022/05/07 02:57:14;;;;;;;;;;;12.10;77.10;;;;;;5026582;28;19989;-79
2022/05/07 02:59:40;;;;;;;;;;;12.00;77.10;;;;;;5042270;28;20282;-78
2022/05/07 03:02:07;;;;;;;;;;;12.00;77.40;;;;;;5026615;28;20451;-79
2022/05/07 03:04:32;;;;;;;;;;;12.00;77.20;;;;;;5028965;28;19960;-79
2022/05/07 03:06:58;;;;;;;;;;;12.00;77.10;;;;;;5006897;28;19940;-79
2022/05/07 03:09:23;;;;;;;;;;;12.00;77.10;;;;;;5028690;28;19920;-79
2022/05/07 03:11:49;;;;;;;;;;;11.90;77.30;;;;;;5023968;28;20007;-78
2022/05/07 03:14:15;;;;;;;;;;;11.90;77.60;;;;;;5027608;28;19924;-79
2022/05/07 03:16:40;;;;;;;;;;;11.90;77.50;;;;;;5026319;28;20008;-79
2022/05/07 03:19:07;;;;;;;;;;;11.80;77.50;;;;;;5006871;28;19928;-79
2022/05/07 03:21:32;;;;;;;;;;;11.70;77.70;;;;;;5027048;28;20024;-78
2022/05/07 03:23:58;;;;;;;;;;;11.70;77.60;;;;;;5008526;28;19920;-78
2022/05/07 03:26:23;;;;;;;;;;;11.60;77.80;;;;;;5025677;28;19913;-78
2022/05/07 03:28:49;;;;;;;;;;;11.60;77.70;;;;;;5008010;28;19916;-79
2022/05/07 03:31:15;;;;;;;;;;;11.60;78.00;;;;;;5026239;28;20361;-79
2022/05/07 03:33:40;;;;;;;;;;;11.60;77.90;;;;;;5026689;28;19913;-79
2022/05/07 03:36:06;;;;;;;;;;;11.50;78.20;;;;;;5023106;28;19932;-80
2022/05/07 03:38:31;;;;;;;;;;;11.50;78.40;;;;;;5010143;28;19913;-80
2022/05/07 03:40:57;;;;;;;;;;;11.50;78.30;;;;;;5026033;28;19936;-79
2022/05/07 03:43:22;;;;;;;;;;;11.40;78.70;;;;;;5009626;28;19917;-79
2022/05/07 03:45:48;;;;;;;;;;;11.40;79.20;;;;;;5028452;28;19924;-79
2022/05/07 03:48:13;;;;;;;;;;;11.40;79.40;;;;;;5010574;28;19913;-79
2022/05/07 03:50:39;;;;;;;;;;;11.50;79.90;;;;;;5028572;28;19921;-80
2022/05/07 03:55:48;;;;;;;;;;;11.60;79.10;;;;;;5027307;28;19936;-80
2022/05/07 03:58:17;;;;;;;;;;;11.60;78.80;;;;;;5010969;28;20342;-81
2022/05/07 04:00:43;;;;;;;;;;;11.70;78.40;;;;;;5026512;28;19961;-80
2022/05/07 04:03:12;;;;;;;;;;;11.60;78.30;;;;;;5006144;28;20304;-79
2022/05/07 04:05:37;;;;;;;;;;;11.70;78.10;;;;;;5024055;28;20513;-80
2022/05/07 04:08:03;;;;;;;;;;;11.60;78.10;;;;;;5009834;28;20000;-80
2022/05/07 04:10:29;;;;;;;;;;;11.60;78.00;;;;;;5015272;28;19913;-80
2022/05/07 04:12:54;;;;;;;;;;;11.70;77.90;;;;;;5032434;28;19913;-80
2022/05/07 04:15:20;;;;;;;;;;;11.60;78.10;;;;;;5032073;28;19945;-79
2022/05/07 04:17:46;;;;;;;;;;;11.60;78.40;;;;;;5033098;28;19917;-78
2022/05/07 04:20:12;;;;;;;;;;;11.60;78.80;;;;;;5015573;28;19917;-80
2022/05/07 04:22:37;;;;;;;;;;;11.60;78.80;;;;;;5032376;28;19921;-79
2022/05/07 04:25:04;;;;;;;;;;;11.60;79.00;;;;;;5030506;28;19913;-79
2022/05/07 04:27:29;;;;;;;;;;;11.80;78.80;;;;;;5015340;28;19913;-80
2022/05/07 04:29:57;;;;;;;;;;;11.80;78.60;;;;;;5029830;28;19912;-80
2022/05/07 04:32:22;;;;;;;;;;;11.90;78.50;;;;;;5029736;28;20008;-80
2022/05/07 04:34:48;;;;;;;;;;;11.90;78.60;;;;;;5034969;28;20671;-80
2022/05/07 04:37:13;;;;;;;;;;;12.10;78.20;;;;;;5029437;28;19921;-80
2022/05/07 04:39:39;;;;;;;;;;;12.10;78.30;;;;;;5030917;28;20032;-81
2022/05/07 04:42:04;;;;;;;;;;;12.20;77.40;;;;;;5030513;28;20284;-79
2022/05/07 04:44:30;;;;;;;;;;;12.30;77.50;;;;;;5031572;28;20016;-80
2022/05/07 04:46:55;;;;;;;;;;;12.40;77.10;;;;;;5031602;28;19913;-80
2022/05/07 04:49:22;;;;;;;;;;;12.40;77.30;;;;;;5030963;28;19928;-80
2022/05/07 04:51:50;;;;;;;;;;;12.50;77.10;;;;;;5028814;28;19953;-81
2022/05/07 04:54:20;;;;;;;;;;;12.50;77.20;;;;;;5032427;28;19960;-80
2022/05/07 04:56:49;;;;;;;;;;;12.60;77.10;;;;;;5030063;28;19921;-81
2022/05/07 04:59:14;;;;;;;;;;;12.60;76.90;;;;;;5030251;28;19919;-80
2022/05/07 05:01:40;;;;;;;;;;;12.60;76.90;;;;;;5031233;28;19972;-80
2022/05/07 05:04:06;;;;;;;;;;;12.80;76.80;;;;;;5026615;28;19963;-81
2022/05/07 05:06:31;;;;;;;;;;;12.80;76.80;;;;;;5030251;28;20358;-79
2022/05/07 05:08:57;;;;;;;;;;;12.90;76.70;;;;;;5030432;28;20076;-80
2022/05/07 05:11:22;;;;;;;;;;;13.00;76.40;;;;;;5031360;28;19955;-80
2022/05/07 05:13:48;;;;;;;;;;;13.10;76.00;;;;;;5029398;28;20385;-80
2022/05/07 05:16:13;;;;;;;;;;;13.30;75.10;;;;;;5029657;28;19920;-80
2022/05/07 05:18:39;;;;;;;;;;;13.50;74.30;;;;;;5028999;28;20007;-80
2022/05/07 05:21:04;;;;;;;;;;;13.60;73.00;;;;;;5030112;28;20370;-80
2022/05/07 05:23:30;;;;;;;;;;;13.80;72.10;;;;;;5027858;28;19917;-79
2022/05/07 05:25:56;;;;;;;;;;;13.80;71.60;;;;;;5015999;28;19917;-80
2022/05/07 05:28:21;;;;;;;;;;;14.00;71.20;;;;;;5030280;28;19967;-80
2022/05/07 05:30:51;;;;;;;;;;;14.20;70.20;;;;;;5031105;28;19920;-80
2022/05/07 05:33:20;;;;;;;;;;;14.30;69.50;;;;;;5026890;28;19917;-80
2022/05/07 05:35:46;;;;;;;;;;;14.50;69.40;;;;;;5031115;28;19917;-80
2022/05/07 05:38:11;;;;;;;;;;;14.60;68.80;;;;;;5025016;28;19913;-80
2022/05/07 05:40:37;;;;;;;;;;;14.60;69.20;;;;;;5031948;28;20047;-81
2022/05/07 05:43:02;;;;;;;;;;;14.60;69.60;;;;;;5014766;28;19917;-80
2022/05/07 05:45:27;;;;;;;;;;;14.50;69.20;;;;;;5032890;28;19914;-80
2022/05/07 05:47:53;;;;;;;;;;;14.80;68.00;;;;;;5027927;28;19913;-78
2022/05/07 05:50:19;;;;;;;;;;;14.90;68.00;;;;;;5034276;28;20012;-80
2022/05/07 05:52:45;;;;;;;;;;;15.00;68.90;;;;;;5039304;28;19960;-79
2022/05/07 05:55:10;;;;;;;;;;;15.10;68.20;;;;;;5016296;28;20300;-80
2022/05/07 05:57:38;;;;;;;;;;;15.30;66.90;;;;;;5018421;28;19975;-81
2022/05/07 06:00:07;;;;;;;;;;;15.40;66.50;;;;;;5015049;28;20348;-81
2022/05/07 06:02:32;;;;;;;;;;;15.30;66.60;;;;;;5026390;28;19917;-80
2022/05/07 06:04:58;;;;;;;;;;;15.40;66.70;;;;;;5031058;28;20388;-80
2022/05/07 06:07:23;;;;;;;;;;;15.40;66.90;;;;;;5006687;28;19921;-80
2022/05/07 06:09:49;;;;;;;;;;;15.30;67.70;;;;;;5011324;28;19932;-79
2022/05/07 06:12:14;;;;;;;;;;;15.50;67.40;;;;;;5006879;28;19913;-80
2022/05/07 06:14:40;;;;;;;;;;;15.60;67.30;;;;;;5014763;28;19935;-79
2022/05/07 06:17:05;;;;;;;;;;;15.90;66.80;;;;;;5031522;28;19924;-80
2022/05/07 06:19:31;;;;;;;;;;;16.00;66.10;;;;;;5009096;28;19917;-80
2022/05/07 06:21:56;;;;;;;;;;;16.10;65.90;;;;;;5029460;28;19917;-80
2022/05/07 06:29:50;;;;;;;;;;;15.80;66.10;;;;;;5021923;28;19920;-80
2022/05/07 06:32:17;;;;;;;;;;;15.60;66.70;;;;;;5033029;28;19921;-81
2022/05/07 06:34:43;;;;;;;;;;;15.60;67.10;;;;;;5029104;28;20381;-80
2022/05/07 06:37:08;;;;;;;;;;;15.90;66.50;;;;;;5013905;28;19920;-79
2022/05/07 06:39:34;;;;;;;;;;;15.80;66.80;;;;;;5023961;28;19921;-79
2022/05/07 06:41:59;;;;;;;;;;;16.00;66.30;;;;;;5031966;28;19913;-80
2022/05/07 06:44:25;;;;;;;;;;;15.80;66.50;;;;;;5028332;28;19917;-80
2022/05/07 06:46:51;;;;;;;;;;;15.80;66.50;;;;;;5029521;28;19919;-80
2022/05/07 06:49:18;;;;;;;;;;;15.90;66.40;;;;;;5031240;28;19991;-81
2022/05/07 06:51:43;;;;;;;;;;;15.90;66.00;;;;;;5031413;28;19920;-81
2022/05/07 06:54:09;;;;;;;;;;;16.00;65.30;;;;;;5030167;28;19948;-80
2022/05/07 06:56:35;;;;;;;;;;;16.10;65.30;;;;;;5046324;28;20153;-81
2022/05/07 06:59:00;;;;;;;;;;;16.40;64.50;;;;;;5023490;28;19920;-81
2022/05/07 07:01:26;;;;;;;;;;;16.40;63.90;;;;;;5046411;28;19917;-82
2022/05/07 07:03:51;;;;;;;;;;;16.30;64.60;;;;;;5041180;28;19917;-80
2022/05/07 07:06:19;;;;;;;;;;;16.50;63.70;;;;;;5013509;28;20288;-80
2022/05/07 07:08:44;;;;;;;;;;;16.50;63.90;;;;;;5026346;28;20400;-81
2022/05/07 07:11:09;;;;;;;;;;;16.50;63.70;;;;;;5028617;28;19921;-81
2022/05/07 07:13:35;;;;;;;;;;;16.50;64.00;;;;;;5011638;28;19913;-81
2022/05/07 07:16:01;;;;;;;;;;;16.60;63.40;;;;;;5015123;28;19951;-81
2022/05/07 07:18:26;;;;;;;;;;;16.60;63.50;;;;;;5028766;28;19921;-81
2022/05/07 07:20:52;;;;;;;;;;;16.70;63.10;;;;;;5009676;28;20133;-81
2022/05/07 07:23:17;;;;;;;;;;;16.80;62.80;;;;;;5027537;28;19913;-81
2022/05/07 07:25:43;;;;;;;;;;;16.90;61.90;;;;;;5016248;28;20075;-82
2022/05/07 07:28:09;;;;;;;;;;;16.80;62.40;;;;;;5012545;28;19916;-81
2022/05/07 07:30:35;;;;;;;;;;;16.80;62.60;;;;;;5027310;28;19921;-81
2022/05/07 07:33:01;;;;;;;;;;;17.00;62.00;;;;;;5011821;28;19909;-81
2022/05/07 07:35:27;;;;;;;;;;;17.10;62.00;;;;;;5020025;28;19988;-82
2022/05/07 07:37:52;;;;;;;;;;;17.10;62.60;;;;;;5029833;28;19936;-82
2022/05/07 07:40:18;;;;;;;;;;;17.20;61.70;;;;;;5031402;28;19917;-83
2022/05/07 07:42:43;;;;;;;;;;;17.20;62.30;;;;;;5027451;28;19917;-83
2022/05/07 07:47:57;;;;;;;;;;;17.50;61.70;;;;;;5030659;28;19943;-84
2022/05/07 07:50:23;;;;;;;;;;;17.50;62.00;;;;;;5025948;28;20369;-84
2022/05/07 07:52:52;;;;;;;;;;;17.50;61.30;;;;;;5014394;28;19963;-81
2022/05/07 07:55:17;;;;;;;;;;;17.50;60.60;;;;;;5032063;28;19913;-83
2022/05/07 07:57:43;;;;;;;;;;;17.70;60.10;;;;;;5012612;28;19966;-82
2022/05/07 08:00:08;;;;;;;;;;;18.00;59.10;;;;;;5029844;28;19972;-82
2022/05/07 08:02:34;;;;;;;;;;;18.10;59.00;;;;;;5029711;28;19932;-82
2022/05/07 08:04:59;;;;;;;;;;;18.00;59.00;;;;;;5015312;28;20004;-85
2022/05/07 08:12:53;;;;;;;;;;;18.40;59.00;;;;;;5036229;28;19983;-83
2022/05/07 08:15:19;;;;;;;;;;;18.30;58.90;;;;;;5013832;28;20018;-83
2022/05/07 08:17:44;;;;;;;;;;;18.50;58.50;;;;;;5033285;28;19983;-83
2022/05/07 08:20:10;;;;;;;;;;;18.50;57.90;;;;;;5033718;28;19924;-83
2022/05/07 08:22:35;;;;;;;;;;;18.60;58.70;;;;;;5030030;28;19939;-83
2022/05/07 08:25:01;;;;;;;;;;;18.90;58.10;;;;;;5032508;28;19913;-83
2022/05/07 08:27:27;;;;;;;;;;;18.80;58.60;;;;;;5033252;28;19928;-83
2022/05/07 08:29:55;;;;;;;;;;;18.90;58.70;;;;;;5015092;28;19920;-84
2022/05/07 08:32:21;;;;;;;;;;;19.00;57.70;;;;;;5029477;28;19915;-85
2022/05/07 08:34:48;;;;;;;;;;;19.00;57.90;;;;;;5029953;28;19952;-82
2022/05/07 08:37:14;;;;;;;;;;;18.90;58.00;;;;;;5011774;28;19913;-83
2022/05/07 08:39:40;;;;;;;;;;;18.80;57.50;;;;;;5028122;28;19956;-83
2022/05/07 08:42:06;;;;;;;;;;;19.00;57.50;;;;;;5029773;28;19966;-83
2022/05/07 08:44:32;;;;;;;;;;;19.10;57.60;;;;;;5020701;28;19917;-79
2022/05/07 08:46:58;;;;;;;;;;;19.20;57.60;;;;;;5027850;28;19995;-80
2022/05/07 08:49:25;;;;;;;;;;;19.50;57.00;;;;;;5040839;28;19913;-82
2022/05/07 08:51:50;;;;;;;;;;;19.50;55.90;;;;;;5015696;28;20289;-79
2022/05/07 08:54:16;;;;;;;;;;;19.50;54.60;;;;;;5014779;28;19923;-82
2022/05/07 08:56:41;;;;;;;;;;;19.50;54.80;;;;;;5015750;28;20025;-83
2022/05/07 08:59:07;;;;;;;;;;;19.50;54.30;;;;;;5014019;28;20356;-81
2022/05/07 09:01:32;;;;;;;;;;;19.50;53.20;;;;;;5040625;28;19913;-83
2022/05/07 09:04:07;;;;;;;;;;;19.60;52.50;;;;;;5009572;28;19917;-86
2022/05/07 09:06:33;;;;;;;;;;;19.60;52.20;;;;;;5028938;28;19921;-83
2022/05/07 09:08:58;;;;;;;;;;;19.70;53.80;;;;;;5012798;28;19925;-82
2022/05/07 09:11:24;;;;;;;;;;;19.60;53.30;;;;;;5024911;28;19918;-80
2022/05/07 09:14:04;;;;;;;;;;;19.70;51.80;;;;;;5025503;28;19920;-80
2022/05/07 09:16:40;;;;;;;;;;;19.80;52.30;;;;;;5024926;28;19913;-81
2022/05/07 09:19:17;;;;;;;;;;;19.90;52.10;;;;;;5021855;28;20025;-83
2022/05/07 09:21:42;;;;;;;;;;;19.90;53.60;;;;;;5008236;28;19965;-82
2022/05/07 09:24:08;;;;;;;;;;;20.10;52.50;;;;;;5025340;28;19960;-82
2022/05/07 09:26:35;;;;;;;;;;;20.10;51.70;;;;;;5032500;28;20395;-82
2022/05/07 09:29:01;;;;;;;;;;;20.00;51.40;;;;;;5036082;28;19940;-83
2022/05/07 09:31:30;;;;;;;;;;;20.10;51.20;;;;;;5034686;28;19913;-83
2022/05/07 09:35:47;;;;;;;;;;;20.20;51.70;;;;;;5034280;28;19960;-82
2022/05/07 09:36:42;;;;;;;;;;;20.30;52.00;;;;;;5033316;28;19920;-81
2022/05/07 09:39:10;;;;;;;;;;;20.30;51.80;;;;;;5048569;28;20295;-81
2022/05/07 09:41:35;;;;;;;;;;;20.50;51.90;;;;;;5033216;28;19914;-81
2022/05/07 09:44:01;;;;;;;;;;;20.60;51.50;;;;;;5037053;28;19928;-81
2022/05/07 09:46:30;;;;;;;;;;;20.60;50.80;;;;;;5042620;28;19921;-82
2022/05/07 09:48:58;;;;;;;;;;;20.60;51.10;;;;;;5021493;28;20038;-81
2022/05/07 09:51:24;;;;;;;;;;;20.80;51.30;;;;;;5009506;28;20008;-81
2022/05/07 09:59:18;;;;;;;;;;;21.20;51.00;;;;;;5030811;28;19924;-82
2022/05/07 10:01:51;;;;;;;;;;;21.20;50.10;;;;;;5020937;28;19925;-81
2022/05/07 10:04:16;;;;;;;;;;;21.10;50.10;;;;;;5013092;28;20312;-82
2022/05/07 10:06:42;;;;;;;;;;;20.90;50.40;;;;;;5031020;28;20360;-82
2022/05/07 10:09:23;;;;;;;;;;;20.80;50.10;;;;;;5026474;28;20035;-83
2022/05/07 10:11:52;;;;;;;;;;;20.60;49.90;;;;;;5008858;28;20321;-80
2022/05/07 10:14:26;;;;;;;;;;;20.50;50.60;;;;;;5032157;28;20392;-79
2022/05/07 10:16:56;;;;;;;;;;;20.50;50.60;;;;;;5031429;28;19920;-79
2022/05/07 10:19:31;;;;;;;;;;;20.50;50.50;;;;;;5031308;28;19932;-80
2022/05/07 10:21:57;;;;;;;;;;;20.60;50.40;;;;;;5030502;28;20401;-80
2022/05/07 10:24:23;;;;;;;;;;;20.80;50.50;;;;;;5034267;28;19982;-80
2022/05/07 10:26:49;;;;;;;;;;;21.00;50.40;;;;;;5041320;28;19913;-80
2022/05/07 10:29:28;;;;;;;;;;;21.20;49.80;;;;;;5011048;28;19924;-80
2022/05/07 10:32:00;;;;;;;;;;;21.30;49.60;;;;;;5020762;28;19921;-80
2022/05/07 10:34:26;;;;;;;;;;;21.30;49.10;;;;;;5030726;28;19980;-80
2022/05/07 10:37:02;;;;;;;;;;;21.30;48.80;;;;;;5034175;28;21608;-80
2022/05/07 10:39:28;;;;;;;;;;;21.10;49.00;;;;;;5029244;28;19974;-80
2022/05/07 10:41:53;;;;;;;;;;;21.10;49.70;;;;;;5032094;28;19921;-80
2022/05/07 10:44:29;;;;;;;;;;;21.00;50.00;;;;;;5029649;28;19924;-80
2022/05/07 10:46:55;;;;;;;;;;;21.00;50.30;;;;;;5030540;28;19917;-80
2022/05/07 10:49:20;;;;;;;;;;;21.10;50.00;;;;;;5031219;28;19917;-81
2022/05/07 10:51:51;;;;;;;;;;;21.30;49.00;;;;;;5030373;28;20317;-80
2022/05/07 10:54:18;;;;;;;;;;;21.60;48.50;;;;;;5024114;28;20016;-80
2022/05/07 10:56:48;;;;;;;;;;;21.80;48.40;;;;;;5028495;28;19979;-80
2022/05/07 10:59:13;;;;;;;;;;;21.90;46.80;;;;;;5019056;28;20468;-80
2022/05/07 11:01:39;;;;;;;;;;;22.00;47.20;;;;;;5014636;28;19967;-81
2022/05/07 11:04:08;;;;;;;;;;;21.90;47.50;;;;;;5026632;28;20883;-84
2022/05/07 11:06:40;;;;;;;;;;;21.80;47.50;;;;;;5030767;28;21064;-84
2022/05/07 11:09:05;;;;;;;;;;;21.80;47.60;;;;;;5024417;28;20405;-82
2022/05/07 11:11:40;;;;;;;;;;;21.80;47.50;;;;;;5009699;28;19995;-82
2022/05/07 11:14:06;;;;;;;;;;;22.00;46.80;;;;;;5025583;28;19972;-82
2022/05/07 11:16:31;;;;;;;;;;;21.80;46.60;;;;;;5050673;28;19944;-81
2022/05/07 11:18:57;;;;;;;;;;;22.00;46.10;;;;;;5035447;28;20296;-82
2022/05/07 11:21:23;;;;;;;;;;;22.10;45.50;;;;;;5026135;28;19913;-81
2022/05/07 11:23:55;;;;;;;;;;;22.30;46.00;;;;;;5023355;28;19920;-81
2022/05/07 11:26:21;;;;;;;;;;;22.70;44.60;;;;;;5038011;28;19925;-82
2022/05/07 11:28:47;;;;;;;;;;;23.00;43.50;;;;;;5019364;28;20054;-82
2022/05/07 11:31:25;;;;;;;;;;;23.10;42.90;;;;;;5027806;28;20055;-82
2022/05/07 11:34:05;;;;;;;;;;;23.20;41.70;;;;;;5013478;28;19913;-81
2022/05/07 11:36:31;;;;;;;;;;;23.10;42.70;;;;;;5001255;28;19928;-82
2022/05/07 11:38:58;;;;;;;;;;;23.20;42.80;;;;;;5005123;28;20345;-83
2022/05/07 11:41:23;;;;;;;;;;;23.20;42.80;;;;;;5019301;28;19940;-81
2022/05/07 11:46:33;;;;;;;;;;;23.00;43.00;;;;;;5017170;28;19924;-81
2022/05/07 11:49:05;;;;;;;;;;;22.90;44.00;;;;;;5003873;28;19913;-81
2022/05/07 11:51:31;;;;;;;;;;;22.90;44.30;;;;;;5000136;28;19921;-81
2022/05/07 11:54:00;;;;;;;;;;;22.60;44.90;;;;;;5006798;28;19917;-81
2022/05/07 11:56:26;;;;;;;;;;;22.60;44.80;;;;;;5022061;28;19917;-82
2022/05/07 11:58:52;;;;;;;;;;;22.60;44.70;;;;;;5022452;28;19920;-84
2022/05/07 12:01:21;;;;;;;;;;;22.60;44.70;;;;;;5030391;28;20451;-82
2022/05/07 12:03:48;;;;;;;;;;;22.50;45.30;;;;;;5018745;28;19917;-83
2022/05/07 12:06:26;;;;;;;;;;;22.60;44.20;;;;;;5011065;28;20292;-83
2022/05/07 12:08:52;;;;;;;;;;;22.50;45.20;;;;;;5012024;28;19912;-81
2022/05/07 12:11:17;;;;;;;;;;;22.50;44.60;;;;;;5018781;28;19913;-80
2022/05/07 12:13:44;;;;;;;;;;;22.50;45.00;;;;;;5008896;28;19917;-83
2022/05/07 12:18:54;;;;;;;;;;;22.10;46.30;;;;;;5025110;28;19935;-83
2022/05/07 12:29:48;;;;;;;;;;;22.00;47.00;;;;;;5018956;28;19913;-82
2022/05/07 12:29:49;;;;;;;;;;;21.70;50.50;;;;;;5022899;28;19964;-83
2022/05/07 12:32:15;;;;;;;;;;;21.70;51.70;;;;;;5010762;28;20012;-82
2022/05/07 12:34:40;;;;;;;;;;;21.60;50.30;;;;;;5015674;28;19963;-83
2022/05/07 12:37:05;;;;;;;;;;;21.60;49.30;;;;;;5028743;28;20012;-85
2022/05/07 12:39:31;;;;;;;;;;;21.60;52.30;;;;;;5027936;28;20833;-82
2022/05/07 12:42:03;;;;;;;;;;;21.50;56.40;;;;;;5016023;28;19917;-82
2022/05/07 12:44:28;;;;;;;;;;;21.60;56.70;;;;;;5010645;28;19925;-83
2022/05/07 12:46:54;;;;;;;;;;;21.40;57.50;;;;;;5034449;28;20278;-82
2022/05/07 12:49:21;;;;;;;;;;;21.60;57.30;;;;;;5038973;28;19921;-82
2022/05/07 12:51:46;;;;;;;;;;;21.60;56.70;;;;;;5029751;28;19912;-82
2022/05/07 12:54:11;;;;;;;;;;;21.50;57.30;;;;;;5012313;28;19924;-83
2022/05/07 12:56:37;;;;;;;;;;;21.60;55.00;;;;;;5032069;28;19920;-83
2022/05/07 12:59:02;;;;;;;;;;;21.60;54.70;;;;;;5030234;28;20357;-82
2022/05/07 13:01:28;;;;;;;;;;;21.70;54.20;;;;;;5018982;28;20297;-82
2022/05/07 13:03:54;;;;;;;;;;;21.80;54.10;;;;;;5019600;28;20257;-82
2022/05/07 13:06:20;;;;;;;;;;;22.00;53.30;;;;;;5015954;28;19928;-80
2022/05/07 13:08:45;;;;;;;;;;;22.00;52.50;;;;;;5010187;28;19913;-80
2022/05/07 13:11:11;;;;;;;;;;;22.00;52.20;;;;;;5031559;28;19913;-80
2022/05/07 13:13:36;;;;;;;;;;;22.00;50.60;;;;;;5015605;28;19978;-80
2022/05/07 13:16:02;;;;;;;;;;;22.00;50.30;;;;;;5031759;28;20387;-80
2022/05/07 13:18:27;;;;;;;;;;;22.10;50.80;;;;;;5030803;28;21790;-80
2022/05/07 13:20:55;;;;;;;;;;;22.10;50.90;;;;;;5013793;28;19928;-80
2022/05/07 13:23:20;;;;;;;;;;;22.00;50.00;;;;;;5031944;28;19921;-81
2022/05/07 13:25:46;;;;;;;;;;;22.00;49.20;;;;;;5026596;28;19929;-81
2022/05/07 13:28:11;;;;;;;;;;;22.10;49.70;;;;;;5030902;28;19920;-81
2022/05/07 13:30:37;;;;;;;;;;;22.10;49.50;;;;;;5030662;28;19963;-81
2022/05/07 13:33:02;;;;;;;;;;;22.30;49.30;;;;;;5025621;28;20341;-80
2022/05/07 13:35:28;;;;;;;;;;;22.20;49.80;;;;;;5017015;28;19913;-80
2022/05/07 13:37:53;;;;;;;;;;;22.30;48.80;;;;;;5030045;28;20024;-80
2022/05/07 13:40:19;;;;;;;;;;;22.20;48.70;;;;;;5035636;28;20361;-80
2022/05/07 13:42:44;;;;;;;;;;;22.10;48.40;;;;;;5032707;28;20422;-80
2022/05/07 13:45:11;;;;;;;;;;;22.00;48.80;;;;;;5032094;28;19920;-80
2022/05/07 13:47:37;;;;;;;;;;;22.10;49.30;;;;;;5032255;28;19967;-81
2022/05/07 13:50:05;;;;;;;;;;;22.10;49.90;;;;;;5045050;28;19974;-81
2022/05/07 13:52:33;;;;;;;;;;;22.00;50.20;;;;;;5035670;28;19981;-82
2022/05/07 13:54:58;;;;;;;;;;;22.00;49.90;;;;;;5021415;28;19913;-80
2022/05/07 13:57:23;;;;;;;;;;;21.90;50.60;;;;;;5031610;28;19920;-81
2022/05/07 13:59:49;;;;;;;;;;;21.70;51.30;;;;;;5038486;28;19988;-81
2022/05/07 14:02:15;;;;;;;;;;;21.70;51.50;;;;;;5039648;28;19920;-81
2022/05/07 14:04:41;;;;;;;;;;;21.60;52.00;;;;;;5031831;28;19920;-81
2022/05/07 14:07:06;;;;;;;;;;;21.50;50.90;;;;;;5036628;28;19916;-81
2022/05/07 14:09:32;;;;;;;;;;;21.50;51.40;;;;;;5022248;28;19917;-81
2022/05/07 14:11:58;;;;;;;;;;;21.60;51.40;;;;;;5042288;28;20349;-81
2022/05/07 14:14:25;;;;;;;;;;;21.60;51.00;;;;;;5012547;28;19923;-81
2022/05/07 14:16:51;;;;;;;;;;;21.50;52.50;;;;;;5032346;28;20317;-81
2022/05/07 14:19:16;;;;;;;;;;;21.40;53.10;;;;;;5029802;28;20362;-81
2022/05/07 14:21:43;;;;;;;;;;;21.50;53.80;;;;;;5040886;28;20012;-81
2022/05/07 14:24:08;;;;;;;;;;;21.50;56.30;;;;;;5015817;28;19913;-80
2022/05/07 14:26:35;;;;;;;;;;;21.50;57.70;;;;;;5031254;28;19921;-81
2022/05/07 14:29:00;;;;;;;;;;;21.60;60.30;;;;;;5015189;28;19948;-80
2022/05/07 14:31:26;;;;;;;;;;;21.60;59.90;;;;;;5014069;28;19947;-81
2022/05/07 14:33:52;;;;;;;;;;;21.80;59.20;;;;;;5010395;28;20341;-80
2022/05/07 14:36:18;;;;;;;;;;;22.10;59.60;;;;;;5032021;28;19980;-80
2022/05/07 14:38:43;;;;;;;;;;;22.20;55.80;;;;;;5031042;28;20385;-81
2022/05/07 14:41:08;;;;;;;;;;;22.20;55.70;;;;;;5029863;28;19913;-81
2022/05/07 14:43:34;;;;;;;;;;;22.50;54.70;;;;;;5029151;28;19917;-80
2022/05/07 14:45:59;;;;;;;;;;;22.60;51.30;;;;;;5013658;28;19920;-81
2022/05/07 14:48:25;;;;;;;;;;;22.70;50.50;;;;;;5031656;28;19920;-81